Time;durP1;ratioP1;P1;durP2;ratioP2;P2;SDS_P1;SDS_P2;PMS_P1;PMS_P2;Temp;Humidity;BMP_temperature;BMP_pressure;BME280_temperature;BME280_humidity;BME280_pressure;Samples;Min_cycle;Max_cycle;Signal;HPM_P1;HPM_P2
2023/05/14 00:00:56;;;;;;;0.50;0.50;;;;;;;;;;5037028;28;20183;-82
2023/05/14 00:03:22;;;;;;;0.47;0.47;;;;;;;;;;5036301;28;20195;-82
2023/05/14 00:05:48;;;;;;;0.70;0.70;;;;;;;;;;5036212;28;20214;-82
2023/05/14 00:08:14;;;;;;;0.50;0.50;;;;;;;;;;5037036;28;20180;-81
2023/05/14 00:10:40;;;;;;;0.50;0.50;;;;;;;;;;5036297;28;20200;-82
2023/05/14 00:13:06;;;;;;;0.67;0.67;;;;;;;;;;5036046;28;20292;-82
2023/05/14 00:15:32;;;;;;;0.50;0.50;;;;;;;;;;5037062;28;20179;-82
2023/05/14 00:17:58;;;;;;;0.57;0.57;;;;;;;;;;5036900;28;20548;-83
2023/05/14 00:20:24;;;;;;;0.50;0.50;;;;;;;;;;5036417;28;20176;-83
2023/05/14 00:22:50;;;;;;;0.60;0.60;;;;;;;;;;5036061;28;20208;-83
2023/05/14 00:25:15;;;;;;;0.60;0.60;;;;;;;;;;5036812;28;20172;-83
2023/05/14 00:27:41;;;;;;;0.60;0.60;;;;;;;;;;5038032;28;20195;-83
2023/05/14 00:30:07;;;;;;;0.53;0.53;;;;;;;;;;5039108;28;20720;-84
2023/05/14 00:32:34;;;;;;;0.57;0.57;;;;;;;;;;5037811;28;20196;-83
2023/05/14 00:35:01;;;;;;;0.60;0.60;;;;;;;;;;5040058;28;20184;-81
2023/05/14 00:37:27;;;;;;;0.60;0.60;;;;;;;;;;5045135;28;20183;-82
2023/05/14 00:39:53;;;;;;;0.60;0.60;;;;;;;;;;5049646;28;20194;-82
2023/05/14 00:42:19;;;;;;;0.50;0.50;;;;;;;;;;5043343;28;20215;-81
2023/05/14 00:44:45;;;;;;;0.60;0.60;;;;;;;;;;5047597;28;20222;-80
2023/05/14 00:47:11;;;;;;;0.50;0.50;;;;;;;;;;5050791;28;20267;-80
2023/05/14 00:49:39;;;;;;;0.50;0.50;;;;;;;;;;5047473;28;20187;-81
2023/05/14 00:52:05;;;;;;;0.43;0.43;;;;;;;;;;5042020;28;20175;-82
2023/05/14 00:54:31;;;;;;;0.60;0.60;;;;;;;;;;5034409;28;20212;-82
2023/05/14 00:56:57;;;;;;;0.60;0.60;;;;;;;;;;5034411;28;20179;-82
2023/05/14 00:59:23;;;;;;;0.50;0.50;;;;;;;;;;5034167;28;20326;-82
2023/05/14 01:01:49;;;;;;;0.60;0.60;;;;;;;;;;5034443;28;20203;-80
2023/05/14 01:04:15;;;;;;;0.60;0.60;;;;;;;;;;5033455;28;20195;-84
2023/05/14 01:06:53;;;;;;;0.50;0.50;;;;;;;;;;5034564;28;20172;-81
2023/05/14 01:09:35;;;;;;;0.40;0.40;;;;;;;;;;5033842;28;20198;-80
2023/05/14 01:12:07;;;;;;;0.60;0.60;;;;;;;;;;5033740;28;20314;-80
2023/05/14 01:14:54;;;;;;;0.60;0.60;;;;;;;;;;5034464;28;20590;-81
2023/05/14 01:17:22;;;;;;;0.50;0.50;;;;;;;;;;5033864;28;20320;-80
2023/05/14 01:19:48;;;;;;;0.50;0.50;;;;;;;;;;5034187;28;20211;-81
2023/05/14 01:22:15;;;;;;;0.53;0.53;;;;;;;;;;5033369;28;20203;-80
2023/05/14 01:24:41;;;;;;;0.50;0.50;;;;;;;;;;5033932;28;20176;-80
2023/05/14 01:27:12;;;;;;;0.67;0.67;;;;;;;;;;5034067;28;20179;-81
2023/05/14 01:29:39;;;;;;;0.40;0.40;;;;;;;;;;5033706;28;20203;-80
2023/05/14 01:32:06;;;;;;;0.40;0.40;;;;;;;;;;5033186;28;20701;-80
2023/05/14 01:34:32;;;;;;;0.60;0.60;;;;;;;;;;5033991;28;20732;-81
2023/05/14 01:36:59;;;;;;;0.50;0.50;;;;;;;;;;5033667;28;20544;-79
2023/05/14 01:39:26;;;;;;;0.67;0.67;;;;;;;;;;5033974;28;20188;-80
2023/05/14 01:41:52;;;;;;;0.50;0.50;;;;;;;;;;5033699;28;20261;-80
2023/05/14 01:44:19;;;;;;;0.50;0.50;;;;;;;;;;5033208;28;20180;-80
2023/05/14 01:46:45;;;;;;;0.60;0.60;;;;;;;;;;5033812;28;20175;-80
2023/05/14 01:49:11;;;;;;;0.60;0.60;;;;;;;;;;5033921;28;20168;-79
2023/05/14 01:51:37;;;;;;;0.60;0.60;;;;;;;;;;5033722;28;20176;-81
2023/05/14 01:54:03;;;;;;;0.50;0.50;;;;;;;;;;5033526;28;20698;-81
2023/05/14 01:56:29;;;;;;;0.60;0.60;;;;;;;;;;5036191;28;20175;-81
2023/05/14 01:58:55;;;;;;;0.60;0.60;;;;;;;;;;5036219;28;20164;-82
2023/05/14 02:01:22;;;;;;;0.50;0.50;;;;;;;;;;5036128;28;20650;-81
2023/05/14 02:03:48;;;;;;;0.50;0.50;;;;;;;;;;5035456;28;20196;-81
2023/05/14 02:06:14;;;;;;;0.50;0.50;;;;;;;;;;5033757;28;20180;-80
2023/05/14 02:08:40;;;;;;;0.60;0.60;;;;;;;;;;5033902;28;20192;-81
2023/05/14 02:11:06;;;;;;;0.57;0.57;;;;;;;;;;5033676;28;20266;-80
2023/05/14 02:13:32;;;;;;;0.57;0.57;;;;;;;;;;5032824;28;20279;-80
2023/05/14 02:15:58;;;;;;;0.53;0.53;;;;;;;;;;5033655;28;20234;-80
2023/05/14 02:18:24;;;;;;;0.50;0.50;;;;;;;;;;5033764;28;20176;-80
2023/05/14 02:20:50;;;;;;;0.50;0.50;;;;;;;;;;5033725;28;20283;-81
2023/05/14 02:23:16;;;;;;;0.43;0.43;;;;;;;;;;5033615;28;20263;-80
2023/05/14 02:25:42;;;;;;;0.53;0.53;;;;;;;;;;5033642;28;20184;-82
2023/05/14 02:28:09;;;;;;;0.50;0.50;;;;;;;;;;5033883;28;20199;-81
2023/05/14 02:30:35;;;;;;;0.40;0.40;;;;;;;;;;5033731;28;20651;-81
2023/05/14 02:33:01;;;;;;;0.60;0.60;;;;;;;;;;5032964;28;20272;-81
2023/05/14 02:35:27;;;;;;;0.50;0.50;;;;;;;;;;5033554;28;20176;-81
2023/05/14 02:37:53;;;;;;;0.60;0.60;;;;;;;;;;5033170;28;20673;-81
2023/05/14 02:40:19;;;;;;;0.50;0.50;;;;;;;;;;5032993;28;20172;-80
2023/05/14 02:42:45;;;;;;;0.50;0.50;;;;;;;;;;5032696;28;20219;-80
2023/05/14 02:45:11;;;;;;;0.50;0.50;;;;;;;;;;5032676;28;20178;-81
2023/05/14 02:47:37;;;;;;;0.40;0.40;;;;;;;;;;5033000;28;20555;-79
2023/05/14 02:50:05;;;;;;;0.50;0.50;;;;;;;;;;5033238;28;20175;-81
2023/05/14 02:52:31;;;;;;;0.60;0.60;;;;;;;;;;5032547;28;20208;-80
2023/05/14 02:54:57;;;;;;;0.50;0.50;;;;;;;;;;5032787;28;20277;-81
2023/05/14 02:57:23;;;;;;;0.60;0.60;;;;;;;;;;5033086;28;20199;-81
2023/05/14 02:59:49;;;;;;;0.60;0.60;;;;;;;;;;5033223;28;20188;-81
2023/05/14 03:02:15;;;;;;;0.50;0.50;;;;;;;;;;5031921;28;20274;-80
2023/05/14 03:04:41;;;;;;;0.50;0.50;;;;;;;;;;5032170;28;20180;-81
2023/05/14 03:07:06;;;;;;;0.50;0.50;;;;;;;;;;5032859;28;20172;-80
2023/05/14 03:09:32;;;;;;;0.50;0.50;;;;;;;;;;5032611;28;20652;-80
2023/05/14 03:11:59;;;;;;;0.43;0.43;;;;;;;;;;5032277;28;20243;-79
2023/05/14 03:14:25;;;;;;;0.60;0.60;;;;;;;;;;5032499;28;20208;-81
2023/05/14 03:16:51;;;;;;;0.67;0.67;;;;;;;;;;5032731;28;20183;-80
2023/05/14 03:19:17;;;;;;;0.50;0.50;;;;;;;;;;5033244;28;20180;-80
2023/05/14 03:21:43;;;;;;;0.43;0.43;;;;;;;;;;5032949;28;20244;-80
2023/05/14 03:24:09;;;;;;;0.50;0.50;;;;;;;;;;5032085;28;20211;-79
2023/05/14 03:26:36;;;;;;;0.50;0.50;;;;;;;;;;5032686;28;20176;-81
2023/05/14 03:29:02;;;;;;;0.60;0.60;;;;;;;;;;5035950;28;20178;-81
2023/05/14 03:31:28;;;;;;;0.50;0.50;;;;;;;;;;5036018;28;20184;-80
2023/05/14 03:33:54;;;;;;;0.50;0.50;;;;;;;;;;5035199;28;20223;-81
2023/05/14 03:36:20;;;;;;;0.60;0.60;;;;;;;;;;5036125;28;20203;-80
2023/05/14 03:38:46;;;;;;;0.60;0.60;;;;;;;;;;5036079;28;20180;-78
2023/05/14 03:41:12;;;;;;;0.50;0.50;;;;;;;;;;5036324;28;20233;-80
2023/05/14 03:43:38;;;;;;;0.60;0.60;;;;;;;;;;5035504;28;20281;-80
2023/05/14 03:46:04;;;;;;;0.50;0.50;;;;;;;;;;5035988;28;20258;-80
2023/05/14 03:48:30;;;;;;;0.60;0.60;;;;;;;;;;5036455;28;20582;-80
2023/05/14 03:50:56;;;;;;;0.40;0.40;;;;;;;;;;5035882;28;20179;-81
2023/05/14 03:53:22;;;;;;;0.60;0.60;;;;;;;;;;5035096;28;20216;-81
2023/05/14 03:55:48;;;;;;;0.60;0.60;;;;;;;;;;5035930;28;20183;-79
2023/05/14 03:58:14;;;;;;;0.40;0.40;;;;;;;;;;5035816;28;20559;-80
2023/05/14 04:00:41;;;;;;;0.40;0.40;;;;;;;;;;5036238;28;20187;-81
2023/05/14 04:03:07;;;;;;;0.60;0.60;;;;;;;;;;5036350;28;20246;-81
2023/05/14 04:05:34;;;;;;;0.60;0.60;;;;;;;;;;5037826;28;20180;-80
2023/05/14 04:08:00;;;;;;;0.50;0.50;;;;;;;;;;5037088;28;20252;-81
2023/05/14 04:10:26;;;;;;;0.60;0.60;;;;;;;;;;5036865;28;20623;-81
2023/05/14 04:12:54;;;;;;;0.50;0.50;;;;;;;;;;5036329;28;20196;-81
2023/05/14 04:15:20;;;;;;;0.70;0.70;;;;;;;;;;5017247;28;20215;-80
2023/05/14 04:17:45;;;;;;;0.60;0.60;;;;;;;;;;5035205;28;20172;-80
2023/05/14 04:20:12;;;;;;;0.47;0.47;;;;;;;;;;5035199;28;20195;-81
2023/05/14 04:22:37;;;;;;;0.47;0.47;;;;;;;;;;5034757;28;20216;-80
2023/05/14 04:25:04;;;;;;;0.50;0.50;;;;;;;;;;5034788;28;20229;-82
2023/05/14 04:27:30;;;;;;;0.50;0.50;;;;;;;;;;5034297;28;20254;-79
2023/05/14 04:29:56;;;;;;;0.50;0.50;;;;;;;;;;5033674;28;20650;-80
2023/05/14 04:32:22;;;;;;;0.60;0.60;;;;;;;;;;5033195;28;20246;-80
2023/05/14 04:34:48;;;;;;;0.50;0.50;;;;;;;;;;5033963;28;20215;-79
2023/05/14 04:37:14;;;;;;;0.50;0.50;;;;;;;;;;5035163;28;20176;-81
2023/05/14 04:39:39;;;;;;;0.53;0.53;;;;;;;;;;5017648;28;20238;-81
2023/05/14 04:42:06;;;;;;;0.40;0.40;;;;;;;;;;5034849;28;20172;-81
2023/05/14 04:44:33;;;;;;;0.40;0.40;;;;;;;;;;5035934;28;20191;-84
2023/05/14 04:46:59;;;;;;;0.50;0.50;;;;;;;;;;5036079;28;20175;-83
2023/05/14 04:49:25;;;;;;;0.50;0.50;;;;;;;;;;5036079;28;20179;-81
2023/05/14 04:51:51;;;;;;;0.50;0.50;;;;;;;;;;5036275;28;20171;-81
2023/05/14 04:54:17;;;;;;;0.57;0.57;;;;;;;;;;5035916;28;20297;-83
2023/05/14 04:56:43;;;;;;;0.60;0.60;;;;;;;;;;5035832;28;20168;-83
2023/05/14 04:59:09;;;;;;;0.53;0.53;;;;;;;;;;5039621;28;20176;-81
2023/05/14 05:01:35;;;;;;;0.50;0.50;;;;;;;;;;5041289;28;20176;-79
2023/05/14 05:04:01;;;;;;;0.60;0.60;;;;;;;;;;5047087;28;20204;-79
2023/05/14 05:06:27;;;;;;;0.47;0.47;;;;;;;;;;5035555;28;20259;-81
2023/05/14 05:08:53;;;;;;;0.60;0.60;;;;;;;;;;5034733;28;20230;-81
2023/05/14 05:11:20;;;;;;;0.67;0.67;;;;;;;;;;5034291;28;20180;-81
2023/05/14 05:13:46;;;;;;;0.50;0.50;;;;;;;;;;5041046;28;20295;-80
2023/05/14 05:16:12;;;;;;;0.40;0.40;;;;;;;;;;5048774;28;20179;-79
2023/05/14 05:18:38;;;;;;;0.47;0.47;;;;;;;;;;5049180;28;20174;-79
2023/05/14 05:21:04;;;;;;;0.60;0.60;;;;;;;;;;5037721;28;20553;-81
2023/05/14 05:23:30;;;;;;;0.60;0.60;;;;;;;;;;5034047;28;20245;-81
2023/05/14 05:25:56;;;;;;;0.60;0.60;;;;;;;;;;5033724;28;20172;-81
2023/05/14 05:28:22;;;;;;;0.60;0.60;;;;;;;;;;5033894;28;20172;-81
2023/05/14 05:30:48;;;;;;;0.60;0.60;;;;;;;;;;5034226;28;20261;-79
2023/05/14 05:33:14;;;;;;;0.50;0.50;;;;;;;;;;5033255;28;20246;-80
2023/05/14 05:35:40;;;;;;;0.70;0.70;;;;;;;;;;5034114;28;20199;-80
2023/05/14 05:38:07;;;;;;;0.50;0.50;;;;;;;;;;5034065;28;20687;-81
2023/05/14 05:40:33;;;;;;;0.50;0.50;;;;;;;;;;5033853;28;20175;-81
2023/05/14 05:42:59;;;;;;;0.53;0.53;;;;;;;;;;5033389;28;20671;-80
2023/05/14 05:45:25;;;;;;;0.60;0.60;;;;;;;;;;5034083;28;20203;-81
2023/05/14 05:47:51;;;;;;;0.63;0.63;;;;;;;;;;5033730;28;20519;-80
2023/05/14 05:50:17;;;;;;;0.60;0.60;;;;;;;;;;5033619;28;20188;-84
2023/05/14 05:52:43;;;;;;;0.60;0.60;;;;;;;;;;5033708;28;20231;-81
2023/05/14 05:55:09;;;;;;;0.60;0.60;;;;;;;;;;5033679;28;20188;-81
2023/05/14 05:57:35;;;;;;;0.53;0.53;;;;;;;;;;5033393;28;20659;-81
2023/05/14 06:00:11;;;;;;;0.70;0.70;;;;;;;;;;5033774;28;20179;-81
2023/05/14 06:02:37;;;;;;;0.60;0.60;;;;;;;;;;5033283;28;20230;-81
2023/05/14 06:05:03;;;;;;;0.40;0.40;;;;;;;;;;5033552;28;20549;-81
2023/05/14 06:07:29;;;;;;;0.50;0.50;;;;;;;;;;5036055;28;20180;-79
2023/05/14 06:09:55;;;;;;;0.60;0.60;;;;;;;;;;5043019;28;20282;-79
2023/05/14 06:12:21;;;;;;;0.53;0.53;;;;;;;;;;5042043;28;20203;-79
2023/05/14 06:14:47;;;;;;;0.50;0.50;;;;;;;;;;5042929;28;20216;-79
2023/05/14 06:17:13;;;;;;;0.60;0.60;;;;;;;;;;5048245;28;20566;-79
2023/05/14 06:19:39;;;;;;;0.60;0.60;;;;;;;;;;5050441;28;20180;-82
2023/05/14 06:22:05;;;;;;;0.70;0.70;;;;;;;;;;5043102;28;20236;-81
2023/05/14 06:24:31;;;;;;;0.70;0.70;;;;;;;;;;5044796;28;20179;-81
2023/05/14 06:29:29;;;;;;;0.60;0.60;;;;;;;;;;5041458;28;20279;-84
2023/05/14 06:32:02;;;;;;;0.50;0.50;;;;;;;;;;5045981;28;20661;-85
2023/05/14 06:34:28;;;;;;;0.60;0.60;;;;;;;;;;5051503;28;20202;-84
2023/05/14 06:36:54;;;;;;;0.60;0.60;;;;;;;;;;5052240;28;20179;-84
2023/05/14 06:39:20;;;;;;;0.53;0.53;;;;;;;;;;5054136;28;20182;-84
2023/05/14 06:41:46;;;;;;;0.60;0.60;;;;;;;;;;5054388;28;20228;-85
2023/05/14 06:44:12;;;;;;;0.57;0.57;;;;;;;;;;5058949;28;20266;-83
2023/05/14 06:46:38;;;;;;;0.50;0.50;;;;;;;;;;5058626;28;20167;-82
2023/05/14 06:49:04;;;;;;;0.50;0.50;;;;;;;;;;5058997;28;20266;-84
2023/05/14 06:51:31;;;;;;;0.50;0.50;;;;;;;;;;5058572;28;20539;-83
2023/05/14 06:53:57;;;;;;;0.60;0.60;;;;;;;;;;5056075;28;20265;-82
2023/05/14 06:56:23;;;;;;;0.60;0.60;;;;;;;;;;5058920;28;20668;-83
2023/05/14 06:58:49;;;;;;;0.50;0.50;;;;;;;;;;5059492;28;20246;-83
2023/05/14 07:01:16;;;;;;;0.50;0.50;;;;;;;;;;5058008;28;20183;-83
2023/05/14 07:03:42;;;;;;;0.53;0.53;;;;;;;;;;5041840;28;20359;-83
2023/05/14 07:06:08;;;;;;;0.60;0.60;;;;;;;;;;5044763;28;20271;-83
2023/05/14 07:08:34;;;;;;;0.50;0.50;;;;;;;;;;5060865;28;20186;-84
2023/05/14 07:11:01;;;;;;;0.40;0.40;;;;;;;;;;5063325;28;20234;-83
2023/05/14 07:13:27;;;;;;;0.57;0.57;;;;;;;;;;5063481;28;20261;-83
2023/05/14 07:15:56;;;;;;;0.50;0.50;;;;;;;;;;5064631;28;20261;-83
2023/05/14 07:18:23;;;;;;;0.53;0.53;;;;;;;;;;5063669;28;20180;-83
2023/05/14 07:20:49;;;;;;;0.40;0.40;;;;;;;;;;5065478;28;20641;-83
2023/05/14 07:23:15;;;;;;;0.60;0.60;;;;;;;;;;5064593;28;20199;-83
2023/05/14 07:25:41;;;;;;;0.50;0.50;;;;;;;;;;5064094;28;20179;-81
2023/05/14 07:28:07;;;;;;;0.40;0.40;;;;;;;;;;5064080;28;20195;-82
2023/05/14 07:30:33;;;;;;;0.57;0.57;;;;;;;;;;5053651;28;20186;-82
2023/05/14 07:32:59;;;;;;;0.60;0.60;;;;;;;;;;5042446;28;20287;-82
2023/05/14 07:35:25;;;;;;;0.40;0.40;;;;;;;;;;5043691;28;20191;-83
2023/05/14 07:37:51;;;;;;;0.40;0.40;;;;;;;;;;5042767;28;20180;-82
2023/05/14 07:40:17;;;;;;;0.50;0.50;;;;;;;;;;5042774;28;20635;-82
2023/05/14 07:42:43;;;;;;;0.57;0.57;;;;;;;;;;5042114;28;20204;-82
2023/05/14 07:45:09;;;;;;;0.50;0.50;;;;;;;;;;5043336;28;20198;-83
2023/05/14 07:47:35;;;;;;;0.40;0.40;;;;;;;;;;5042914;28;20190;-83
2023/05/14 07:50:02;;;;;;;0.50;0.50;;;;;;;;;;5043379;28;20199;-83
2023/05/14 07:52:28;;;;;;;0.60;0.60;;;;;;;;;;5041536;28;20597;-83
2023/05/14 07:54:54;;;;;;;0.50;0.50;;;;;;;;;;5042426;28;20242;-83
2023/05/14 07:57:20;;;;;;;0.50;0.50;;;;;;;;;;5100741;22;20235;-83
2023/05/14 07:59:47;;;;;;;0.50;0.50;;;;;;;;;;5062073;28;20190;-83
2023/05/14 08:02:14;;;;;;;0.50;0.50;;;;;;;;;;5061439;28;20689;-83
2023/05/14 08:04:40;;;;;;;0.50;0.50;;;;;;;;;;5062677;28;20266;-83
2023/05/14 08:07:07;;;;;;;0.50;0.50;;;;;;;;;;5062281;28;20175;-83
2023/05/14 08:09:33;;;;;;;0.50;0.50;;;;;;;;;;5062102;28;20190;-83
2023/05/14 08:11:59;;;;;;;0.40;0.40;;;;;;;;;;5078774;22;20234;-82
2023/05/14 08:14:26;;;;;;;0.60;0.60;;;;;;;;;;5086488;28;20699;-81
2023/05/14 08:16:52;;;;;;;0.50;0.50;;;;;;;;;;5084100;28;20170;-83
2023/05/14 08:19:18;;;;;;;0.50;0.50;;;;;;;;;;5085096;28;20186;-84
2023/05/14 08:21:44;;;;;;;0.40;0.40;;;;;;;;;;5085096;28;20171;-84
2023/05/14 08:24:10;;;;;;;0.47;0.47;;;;;;;;;;5078419;28;20559;-84
2023/05/14 08:26:37;;;;;;;0.50;0.50;;;;;;;;;;5078632;28;20170;-82
2023/05/14 08:29:03;;;;;;;0.50;0.50;;;;;;;;;;5076613;28;20194;-82
2023/05/14 08:31:29;;;;;;;0.57;0.57;;;;;;;;;;5076609;28;20205;-82
2023/05/14 08:33:55;;;;;;;0.50;0.50;;;;;;;;;;5075437;28;20620;-82
2023/05/14 08:36:21;;;;;;;0.50;0.50;;;;;;;;;;5076982;28;20175;-81
2023/05/14 08:38:49;;;;;;;0.50;0.50;;;;;;;;;;5076330;28;20186;-81
2023/05/14 08:41:15;;;;;;;0.40;0.40;;;;;;;;;;5075847;28;20532;-81
2023/05/14 08:43:50;;;;;;;0.30;0.30;;;;;;;;;;5075386;28;20285;-80
2023/05/14 08:46:17;;;;;;;0.40;0.40;;;;;;;;;;5075616;28;20273;-82
2023/05/14 08:48:46;;;;;;;0.40;0.40;;;;;;;;;;5075606;28;20202;-82
2023/05/14 08:51:12;;;;;;;0.50;0.50;;;;;;;;;;5075708;28;20629;-82
2023/05/14 08:53:39;;;;;;;0.37;0.37;;;;;;;;;;5075369;28;20217;-82
2023/05/14 08:56:06;;;;;;;0.30;0.30;;;;;;;;;;5075952;28;20625;-82
2023/05/14 08:58:32;;;;;;;0.40;0.40;;;;;;;;;;5075788;28;20240;-81
2023/05/14 09:00:58;;;;;;;0.30;0.30;;;;;;;;;;5075669;28;20544;-81
2023/05/14 09:03:25;;;;;;;0.40;0.40;;;;;;;;;;5072481;28;20243;-82
2023/05/14 09:05:51;;;;;;;0.30;0.30;;;;;;;;;;5067271;28;20775;-81
2023/05/14 09:08:17;;;;;;;0.40;0.40;;;;;;;;;;5073553;28;20186;-83
2023/05/14 09:10:43;;;;;;;0.40;0.40;;;;;;;;;;5076259;28;20179;-82
2023/05/14 09:13:09;;;;;;;0.43;0.43;;;;;;;;;;5058379;28;20297;-83
2023/05/14 09:15:37;;;;;;;0.37;0.37;;;;;;;;;;5068494;28;20202;-82
2023/05/14 09:18:06;;;;;;;0.30;0.30;;;;;;;;;;5073590;28;20541;-81
2023/05/14 09:20:32;;;;;;;0.40;0.40;;;;;;;;;;5067732;28;20174;-84
2023/05/14 09:23:01;;;;;;;0.40;0.40;;;;;;;;;;5072197;28;20689;-82
2023/05/14 09:25:27;;;;;;;0.40;0.40;;;;;;;;;;5074441;28;20201;-81
2023/05/14 09:27:54;;;;;;;0.30;0.30;;;;;;;;;;5075285;28;20174;-82
2023/05/14 09:30:20;;;;;;;0.43;0.43;;;;;;;;;;5075145;28;20174;-83
2023/05/14 09:32:48;;;;;;;0.33;0.33;;;;;;;;;;5073509;28;20244;-81
2023/05/14 09:35:18;;;;;;;0.50;0.50;;;;;;;;;;5058162;28;20202;-82
2023/05/14 09:37:45;;;;;;;0.40;0.40;;;;;;;;;;5066222;28;20190;-80
2023/05/14 09:40:12;;;;;;;0.40;0.40;;;;;;;;;;5066283;28;20170;-81
2023/05/14 09:42:38;;;;;;;0.40;0.40;;;;;;;;;;5058218;28;20606;-84
2023/05/14 09:45:04;;;;;;;0.30;0.30;;;;;;;;;;5071017;28;20183;-81
2023/05/14 09:47:31;;;;;;;0.30;0.30;;;;;;;;;;5060960;28;20622;-82
2023/05/14 09:49:57;;;;;;;0.40;0.40;;;;;;;;;;5074131;28;20178;-87
2023/05/14 09:52:23;;;;;;;0.33;0.33;;;;;;;;;;5060535;28;20202;-83
2023/05/14 09:54:51;;;;;;;0.43;0.43;;;;;;;;;;5056664;28;20277;-82
2023/05/14 09:57:17;;;;;;;0.40;0.40;;;;;;;;;;5067832;28;20250;-83
2023/05/14 09:59:43;;;;;;;0.37;0.37;;;;;;;;;;5073736;28;20178;-80
2023/05/14 10:02:35;;;;;;;0.40;0.40;;;;;;;;;;5074068;28;20659;-80
2023/05/14 10:05:02;;;;;;;0.40;0.40;;;;;;;;;;5062910;28;20637;-81
2023/05/14 10:07:36;;;;;;;0.33;0.33;;;;;;;;;;5067350;28;20258;-83
2023/05/14 10:10:03;;;;;;;0.40;0.40;;;;;;;;;;5053452;28;20178;-82
2023/05/14 10:12:36;;;;;;;0.40;0.40;;;;;;;;;;5052392;28;20264;-81
2023/05/14 10:15:04;;;;;;;0.40;0.40;;;;;;;;;;5069612;28;20210;-81
2023/05/14 10:17:31;;;;;;;0.37;0.37;;;;;;;;;;5059247;28;20539;-81
2023/05/14 10:19:58;;;;;;;0.33;0.33;;;;;;;;;;5063201;28;20183;-83
2023/05/14 10:22:26;;;;;;;0.40;0.40;;;;;;;;;;5066753;28;20251;-82
2023/05/14 10:24:53;;;;;;;0.33;0.33;;;;;;;;;;5056125;28;20171;-82
2023/05/14 10:27:20;;;;;;;0.30;0.30;;;;;;;;;;5072873;28;20205;-82
2023/05/14 10:29:52;;;;;;;0.40;0.40;;;;;;;;;;5071434;28;20174;-82
2023/05/14 10:32:19;;;;;;;0.40;0.40;;;;;;;;;;5072278;28;20214;-82
2023/05/14 10:34:47;;;;;;;0.30;0.30;;;;;;;;;;5055921;28;20249;-82
2023/05/14 10:37:19;;;;;;;0.30;0.30;;;;;;;;;;5077597;28;20663;-83
2023/05/14 10:39:45;;;;;;;0.40;0.40;;;;;;;;;;5079482;28;20968;-81
2023/05/14 10:42:16;;;;;;;0.30;0.30;;;;;;;;;;5079123;28;20181;-82
2023/05/14 10:44:46;;;;;;;0.30;0.30;;;;;;;;;;5063410;28;20178;-82
2023/05/14 10:47:12;;;;;;;0.40;0.40;;;;;;;;;;5063411;28;20174;-82
2023/05/14 10:49:38;;;;;;;0.47;0.47;;;;;;;;;;5080145;28;20194;-82
2023/05/14 10:52:08;;;;;;;0.40;0.40;;;;;;;;;;5079800;28;20177;-83
2023/05/14 10:54:37;;;;;;;0.30;0.30;;;;;;;;;;5064169;28;20587;-82
2023/05/14 10:57:03;;;;;;;0.30;0.30;;;;;;;;;;5059130;28;20626;-81
2023/05/14 10:59:29;;;;;;;0.47;0.47;;;;;;;;;;5059235;28;20601;-82
2023/05/14 11:01:58;;;;;;;0.40;0.40;;;;;;;;;;5069991;28;20183;-83
2023/05/14 11:04:24;;;;;;;0.40;0.40;;;;;;;;;;5079908;28;20174;-83
2023/05/14 11:06:51;;;;;;;0.30;0.30;;;;;;;;;;5062475;28;20602;-82
2023/05/14 11:09:18;;;;;;;0.30;0.30;;;;;;;;;;5064657;28;20182;-82
2023/05/14 11:11:44;;;;;;;0.30;0.30;;;;;;;;;;5080566;28;20178;-82
2023/05/14 11:14:10;;;;;;;0.30;0.30;;;;;;;;;;5079703;28;20233;-83
2023/05/14 11:16:36;;;;;;;0.30;0.30;;;;;;;;;;5065317;28;20176;-85
2023/05/14 11:19:03;;;;;;;0.33;0.33;;;;;;;;;;5077272;28;20174;-83
2023/05/14 11:21:31;;;;;;;0.40;0.40;;;;;;;;;;5066588;28;20175;-83
2023/05/14 11:23:57;;;;;;;0.30;0.30;;;;;;;;;;5079430;28;20233;-82
2023/05/14 11:26:23;;;;;;;0.30;0.30;;;;;;;;;;5066770;28;20179;-84
2023/05/14 11:28:49;;;;;;;0.30;0.30;;;;;;;;;;5061218;28;20710;-83
2023/05/14 11:31:15;;;;;;;0.50;0.50;;;;;;;;;;5060937;28;20179;-82
2023/05/14 11:33:41;;;;;;;0.40;0.40;;;;;;;;;;5068519;28;20214;-84
2023/05/14 11:36:10;;;;;;;0.40;0.40;;;;;;;;;;5080911;28;20177;-83
2023/05/14 11:38:47;;;;;;;0.43;0.43;;;;;;;;;;5067104;28;20203;-84
2023/05/14 11:41:14;;;;;;;0.27;0.27;;;;;;;;;;5080424;28;20166;-85
2023/05/14 11:43:40;;;;;;;0.30;0.30;;;;;;;;;;5080762;28;20567;-81
2023/05/14 11:46:06;;;;;;;0.37;0.37;;;;;;;;;;5080232;28;20179;-84
2023/05/14 11:48:32;;;;;;;0.40;0.40;;;;;;;;;;5077360;28;20193;-83
2023/05/14 11:50:58;;;;;;;0.43;0.43;;;;;;;;;;5077067;28;20175;-82
2023/05/14 11:53:25;;;;;;;0.30;0.30;;;;;;;;;;5076914;28;20676;-82
2023/05/14 11:55:52;;;;;;;0.50;0.50;;;;;;;;;;5077425;28;20182;-83
2023/05/14 11:58:18;;;;;;;0.30;0.30;;;;;;;;;;5077430;28;20175;-83
2023/05/14 12:00:44;;;;;;;0.40;0.40;;;;;;;;;;5077928;28;20174;-82
2023/05/14 12:03:11;;;;;;;0.40;0.40;;;;;;;;;;5075473;28;20559;-83
2023/05/14 12:05:38;;;;;;;0.47;0.47;;;;;;;;;;5078964;28;20193;-83
2023/05/14 12:08:18;;;;;;;0.40;0.40;;;;;;;;;;5076911;28;20189;-82
2023/05/14 12:10:44;;;;;;;0.30;0.30;;;;;;;;;;5077625;28;20167;-84
2023/05/14 12:13:15;;;;;;;0.33;0.33;;;;;;;;;;5077306;28;20711;-84
2023/05/14 12:15:43;;;;;;;0.40;0.40;;;;;;;;;;5077330;28;20633;-82
2023/05/14 12:18:09;;;;;;;0.40;0.40;;;;;;;;;;5076859;28;20197;-82
2023/05/14 12:20:35;;;;;;;0.40;0.40;;;;;;;;;;5077123;28;20183;-82
2023/05/14 12:23:01;;;;;;;0.40;0.40;;;;;;;;;;5077128;28;20205;-82
2023/05/14 12:25:28;;;;;;;0.30;0.30;;;;;;;;;;5076955;28;20175;-81
2023/05/14 12:27:54;;;;;;;0.40;0.40;;;;;;;;;;5077177;28;20178;-84
2023/05/14 12:30:20;;;;;;;0.30;0.30;;;;;;;;;;5077182;28;20309;-83
2023/05/14 12:32:50;;;;;;;0.30;0.30;;;;;;;;;;5077364;28;20198;-82
2023/05/14 12:35:16;;;;;;;0.30;0.30;;;;;;;;;;5077561;28;20210;-85
2023/05/14 12:37:42;;;;;;;0.30;0.30;;;;;;;;;;5078059;28;20170;-83
2023/05/14 12:40:08;;;;;;;0.30;0.30;;;;;;;;;;5078203;28;20198;-85
2023/05/14 12:42:34;;;;;;;0.30;0.30;;;;;;;;;;5077331;28;20194;-84
2023/05/14 12:45:04;;;;;;;0.33;0.33;;;;;;;;;;5078056;28;20206;-84
2023/05/14 12:47:30;;;;;;;0.30;0.30;;;;;;;;;;5077932;28;20179;-83
2023/05/14 12:49:56;;;;;;;0.40;0.40;;;;;;;;;;5078412;28;20593;-84
2023/05/14 12:52:22;;;;;;;0.40;0.40;;;;;;;;;;5077813;28;20226;-85
2023/05/14 12:54:48;;;;;;;0.30;0.30;;;;;;;;;;5076987;28;20214;-85
2023/05/14 12:57:14;;;;;;;0.30;0.30;;;;;;;;;;5077040;28;20747;-84
2023/05/14 12:59:40;;;;;;;0.33;0.33;;;;;;;;;;5077021;28;20489;-82
2023/05/14 13:02:06;;;;;;;0.47;0.47;;;;;;;;;;5077304;28;20185;-83
2023/05/14 13:04:32;;;;;;;0.40;0.40;;;;;;;;;;5076899;28;20711;-84
2023/05/14 13:06:59;;;;;;;0.30;0.30;;;;;;;;;;5075736;28;20216;-83
2023/05/14 13:09:26;;;;;;;0.40;0.40;;;;;;;;;;5077954;28;20170;-83
2023/05/14 13:11:52;;;;;;;0.30;0.30;;;;;;;;;;5077741;28;20230;-86
2023/05/14 13:14:18;;;;;;;0.40;0.40;;;;;;;;;;5074346;28;20583;-83
2023/05/14 13:16:44;;;;;;;0.40;0.40;;;;;;;;;;5076086;28;20183;-83
2023/05/14 13:19:10;;;;;;;0.40;0.40;;;;;;;;;;5077655;28;20189;-82
2023/05/14 13:21:36;;;;;;;0.30;0.30;;;;;;;;;;5078836;28;20190;-84
2023/05/14 13:24:03;;;;;;;0.40;0.40;;;;;;;;;;5078377;28;20198;-83
2023/05/14 13:26:29;;;;;;;0.40;0.40;;;;;;;;;;5079708;28;20170;-83
2023/05/14 13:28:55;;;;;;;0.40;0.40;;;;;;;;;;5080419;28;20179;-82
2023/05/14 13:31:21;;;;;;;0.30;0.30;;;;;;;;;;5081109;28;20178;-84
2023/05/14 13:33:47;;;;;;;0.30;0.30;;;;;;;;;;5077144;28;20214;-84
2023/05/14 13:36:13;;;;;;;0.40;0.40;;;;;;;;;;5078712;28;20175;-83
2023/05/14 13:38:40;;;;;;;0.40;0.40;;;;;;;;;;5078486;28;20500;-84
2023/05/14 13:41:06;;;;;;;0.33;0.33;;;;;;;;;;5077617;28;20174;-85
2023/05/14 13:43:32;;;;;;;0.40;0.40;;;;;;;;;;5077811;28;20197;-85
2023/05/14 13:45:59;;;;;;;0.40;0.40;;;;;;;;;;5077398;28;20265;-84
2023/05/14 13:48:26;;;;;;;0.40;0.40;;;;;;;;;;5077238;28;20182;-83
2023/05/14 13:50:52;;;;;;;0.30;0.30;;;;;;;;;;5077499;28;20167;-83
2023/05/14 13:53:19;;;;;;;0.30;0.30;;;;;;;;;;5077224;28;20194;-83
2023/05/14 13:55:45;;;;;;;0.30;0.30;;;;;;;;;;5077427;28;20274;-84
2023/05/14 13:58:11;;;;;;;0.33;0.33;;;;;;;;;;5077834;28;20598;-85
2023/05/14 14:00:37;;;;;;;0.40;0.40;;;;;;;;;;5078473;28;20636;-85
2023/05/14 14:03:03;;;;;;;0.30;0.30;;;;;;;;;;5078080;28;20300;-84
2023/05/14 14:05:30;;;;;;;0.50;0.50;;;;;;;;;;5078362;28;20659;-84
2023/05/14 14:07:56;;;;;;;0.37;0.37;;;;;;;;;;5079733;28;20653;-83
2023/05/14 14:10:21;;;;;;;0.40;0.40;;;;;;;;;;5078336;28;20194;-84
2023/05/14 14:12:48;;;;;;;0.47;0.47;;;;;;;;;;5078936;28;20245;-84
2023/05/14 14:15:14;;;;;;;0.33;0.33;;;;;;;;;;5082733;28;20198;-82
2023/05/14 14:17:40;;;;;;;0.40;0.40;;;;;;;;;;5094222;28;20174;-85
2023/05/14 14:20:09;;;;;;;0.40;0.40;;;;;;;;;;5095903;28;20177;-84
2023/05/14 14:22:35;;;;;;;0.30;0.30;;;;;;;;;;5095351;28;20213;-85
2023/05/14 14:25:02;;;;;;;0.30;0.30;;;;;;;;;;5095197;28;20242;-86
2023/05/14 14:27:29;;;;;;;0.30;0.30;;;;;;;;;;5093903;28;20242;-84
2023/05/14 14:29:56;;;;;;;0.40;0.40;;;;;;;;;;5076011;28;20720;-81
2023/05/14 14:32:21;;;;;;;0.37;0.37;;;;;;;;;;5075080;28;20198;-83
2023/05/14 14:34:47;;;;;;;0.30;0.30;;;;;;;;;;5075202;28;20700;-83
2023/05/14 14:37:13;;;;;;;0.30;0.30;;;;;;;;;;5075402;28;20216;-82
2023/05/14 14:39:39;;;;;;;0.30;0.30;;;;;;;;;;5075399;28;20170;-83
2023/05/14 14:42:06;;;;;;;0.40;0.40;;;;;;;;;;5074763;28;20202;-84